Time;durP1;ratioP1;P1;durP2;ratioP2;P2;SDS_P1;SDS_P2;PMS_P1;PMS_P2;Temp;Humidity;BMP_temperature;BMP_pressure;BME280_temperature;BME280_humidity;BME280_pressure;Samples;Min_cycle;Max_cycle;Signal;HPM_P1;HPM_P2
2023/12/15 00:00:03;;;;;;;8.38;7.57;;;;;;;4.44;100.00;97136.88;5018145;28;20030;-64
2023/12/15 00:02:29;;;;;;;6.80;6.20;;;;;;;4.37;100.00;97133.69;5013999;28;20060;-64
2023/12/15 00:04:54;;;;;;;7.57;6.85;;;;;;;4.37;100.00;97140.69;5015448;28;20112;-65
2023/12/15 00:07:19;;;;;;;4.47;4.18;;;;;;;4.38;100.00;97148.41;5025637;28;20022;-64
2023/12/15 00:09:45;;;;;;;5.18;4.68;;;;;;;4.40;100.00;97150.97;5023849;28;20077;-64
2023/12/15 00:12:10;;;;;;;6.07;5.47;;;;;;;4.43;100.00;97158.66;5020155;28;20642;-65
2023/12/15 00:14:36;;;;;;;5.05;4.65;;;;;;;4.47;100.00;97162.81;5024933;28;20635;-65
2023/12/15 00:17:02;;;;;;;4.63;4.22;;;;;;;4.52;100.00;97173.88;5018148;28;20499;-64
2023/12/15 00:19:27;;;;;;;5.72;5.22;;;;;;;4.46;100.00;97181.16;5020616;28;20040;-64
2023/12/15 00:21:53;;;;;;;5.97;5.00;;;;;;;4.62;100.00;97181.31;5021615;28;20022;-64
2023/12/15 00:24:18;;;;;;;5.53;5.10;;;;;;;4.48;100.00;97182.75;5020513;28;20511;-64
2023/12/15 00:26:43;;;;;;;4.80;4.50;;;;;;;4.46;100.00;97192.41;5022300;28;20517;-64
2023/12/15 00:29:09;;;;;;;4.72;4.32;;;;;;;4.57;100.00;97199.78;5019709;28;20116;-64
2023/12/15 00:31:35;;;;;;;5.65;5.15;;;;;;;4.52;100.00;97204.34;5022932;28;20599;-64
2023/12/15 00:34:00;;;;;;;5.18;4.88;;;;;;;4.51;100.00;97203.50;5024857;28;20032;-64
2023/12/15 00:36:27;;;;;;;6.68;6.07;;;;;;;4.51;100.00;97202.66;5028403;28;20442;-64
2023/12/15 00:38:52;;;;;;;5.35;4.95;;;;;;;4.48;100.00;97214.06;5019149;28;20364;-64
2023/12/15 00:41:18;;;;;;;3.85;3.55;;;;;;;4.49;100.00;97223.59;5023734;28;20124;-64
2023/12/15 00:43:43;;;;;;;4.47;4.18;;;;;;;4.47;100.00;97224.59;5026299;28;20391;-64
2023/12/15 00:46:08;;;;;;;6.50;5.90;;;;;;;4.40;100.00;97221.38;5027194;28;20148;-64
2023/12/15 00:48:34;;;;;;;18.05;12.10;;;;;;;4.37;100.00;97227.56;5023513;28;20399;-64
2023/12/15 00:50:59;;;;;;;10.77;9.65;;;;;;;4.38;100.00;97228.44;5029114;28;20038;-64
2023/12/15 00:53:25;;;;;;;9.43;6.13;;;;;;;4.29;100.00;97229.66;5029248;28;20069;-64
2023/12/15 00:55:50;;;;;;;3.72;3.38;;;;;;;4.21;100.00;97227.38;5022543;28;20033;-64
2023/12/15 00:58:16;;;;;;;3.88;3.50;;;;;;;4.17;100.00;97231.03;5017310;28;20477;-65
2023/12/15 01:00:41;;;;;;;4.10;3.75;;;;;;;4.18;100.00;97239.69;5017838;28;20095;-64
2023/12/15 01:03:07;;;;;;;5.50;3.90;;;;;;;4.13;100.00;97232.91;5017307;28;20088;-64
2023/12/15 01:05:32;;;;;;;15.48;9.30;;;;;;;4.14;100.00;97236.38;5025825;28;20033;-65
2023/12/15 01:07:57;;;;;;;8.63;6.10;;;;;;;4.14;100.00;97233.78;5031671;28;20028;-64
2023/12/15 01:10:23;;;;;;;6.40;5.82;;;;;;;4.13;100.00;97243.34;5035615;28;20060;-64
2023/12/15 01:12:48;;;;;;;5.78;5.00;;;;;;;4.06;100.00;97238.44;5036334;28;20028;-64
2023/12/15 01:15:14;;;;;;;4.65;4.20;;;;;;;3.96;100.00;97238.81;5028259;28;20026;-64
2023/12/15 01:17:39;;;;;;;3.92;3.72;;;;;;;3.91;100.00;97253.81;5030279;28;20103;-64
2023/12/15 01:20:05;;;;;;;4.55;4.15;;;;;;;3.85;100.00;97256.66;5030298;28;20022;-65
2023/12/15 01:22:30;;;;;;;7.00;6.40;;;;;;;3.80;100.00;97267.28;5019223;28;20116;-64
2023/12/15 01:24:56;;;;;;;9.32;8.25;;;;;;;3.77;100.00;97269.13;5034889;28;20081;-64
2023/12/15 01:27:21;;;;;;;8.15;7.35;;;;;;;3.71;100.00;97265.00;5030262;28;20025;-65
2023/12/15 01:29:46;;;;;;;7.40;6.70;;;;;;;3.71;100.00;97273.69;5030423;28;20033;-64
2023/12/15 01:32:12;;;;;;;5.22;4.82;;;;;;;3.73;100.00;97268.41;5030762;28;20030;-65
2023/12/15 01:34:37;;;;;;;6.88;4.50;;;;;;;3.76;100.00;97262.22;5034386;28;20021;-65
2023/12/15 01:37:03;;;;;;;4.07;3.78;;;;;;;3.81;100.00;97275.91;5029654;28;20575;-64
2023/12/15 01:39:28;;;;;;;4.43;4.05;;;;;;;3.81;100.00;97274.19;5022602;28;20026;-64
2023/12/15 01:41:53;;;;;;;5.82;3.95;;;;;;;3.75;100.00;97279.59;5033563;28;20045;-64
2023/12/15 01:44:19;;;;;;;4.70;4.30;;;;;;;3.68;100.00;97279.03;5022497;28;20033;-64
2023/12/15 01:46:44;;;;;;;4.57;4.18;;;;;;;3.69;100.00;97272.91;5021389;28;20029;-64
2023/12/15 01:49:10;;;;;;;6.50;4.45;;;;;;;3.64;100.00;97285.25;5017819;28;20475;-64
2023/12/15 01:51:35;;;;;;;4.75;4.35;;;;;;;3.60;100.00;97278.47;5023218;28;20061;-64
2023/12/15 01:54:00;;;;;;;4.38;3.97;;;;;;;3.60;100.00;97288.88;5029556;28;20834;-64
2023/12/15 01:56:26;;;;;;;4.88;4.22;;;;;;;3.58;100.00;97286.34;5016916;28;20394;-64
2023/12/15 01:58:51;;;;;;;3.88;3.58;;;;;;;3.53;100.00;97287.44;5029344;28;20106;-64
2023/12/15 02:01:16;;;;;;;4.15;3.85;;;;;;;3.53;100.00;97287.44;5033887;28;20072;-64
2023/12/15 02:03:42;;;;;;;3.78;3.40;;;;;;;3.49;100.00;97291.06;5016440;28;20024;-64
2023/12/15 02:06:07;;;;;;;4.18;3.88;;;;;;;3.46;100.00;97294.63;5016614;28;20024;-64
2023/12/15 02:08:33;;;;;;;5.35;4.82;;;;;;;3.46;100.00;97289.41;5017070;28;20505;-64
2023/12/15 02:10:59;;;;;;;5.35;4.97;;;;;;;3.44;100.00;97289.50;5018401;28;20073;-64
2023/12/15 02:13:24;;;;;;;4.63;4.32;;;;;;;3.41;100.00;97289.56;5016768;28;20544;-64
2023/12/15 02:15:50;;;;;;;3.78;3.50;;;;;;;3.38;100.00;97300.13;5022615;28;20093;-64
2023/12/15 02:18:15;;;;;;;4.60;3.20;;;;;;;3.36;100.00;97296.72;5024930;28;20071;-64
2023/12/15 02:20:41;;;;;;;3.80;3.50;;;;;;;3.33;100.00;97294.25;5016589;28;20026;-64
2023/12/15 02:23:06;;;;;;;3.90;3.67;;;;;;;3.35;100.00;97300.22;5031073;28;20036;-64
2023/12/15 02:25:31;;;;;;;3.65;3.45;;;;;;;3.41;100.00;97299.16;5016341;28;20372;-64
2023/12/15 02:27:57;;;;;;;3.45;3.25;;;;;;;3.47;100.00;97293.72;5015790;28;20658;-64
2023/12/15 02:30:22;;;;;;;3.88;3.58;;;;;;;3.52;100.00;97296.97;5021728;28;20017;-64
2023/12/15 02:32:47;;;;;;;5.10;3.83;;;;;;;3.58;100.00;97303.72;5023028;28;20410;-64
2023/12/15 02:35:14;;;;;;;3.53;3.30;;;;;;;3.61;100.00;97305.38;5021423;28;20037;-64
2023/12/15 02:37:39;;;;;;;3.75;3.55;;;;;;;3.57;100.00;97312.44;5025646;28;20872;-64
2023/12/15 02:40:06;;;;;;;3.70;3.47;;;;;;;3.60;100.00;97308.88;5033466;28;20049;-64
2023/12/15 02:42:32;;;;;;;3.20;3.00;;;;;;;3.59;100.00;97313.22;5022266;28;20536;-64
2023/12/15 02:45:00;;;;;;;3.80;3.50;;;;;;;3.62;100.00;97320.91;5018061;28;20026;-64
2023/12/15 02:47:26;;;;;;;3.50;3.30;;;;;;;3.65;100.00;97326.03;5032205;28;20132;-64
2023/12/15 02:49:54;;;;;;;3.47;3.17;;;;;;;3.66;100.00;97327.72;5027260;28;20024;-64
2023/12/15 02:52:19;;;;;;;4.38;4.00;;;;;;;3.66;100.00;97325.13;5022434;28;20029;-64
2023/12/15 02:54:45;;;;;;;4.22;3.88;;;;;;;3.61;100.00;97329.63;5029645;28;20084;-64
2023/12/15 02:57:10;;;;;;;3.72;3.42;;;;;;;3.68;100.00;97331.13;5015410;28;20036;-64
2023/12/15 02:59:36;;;;;;;4.57;4.25;;;;;;;3.63;100.00;97330.44;5026787;28;20030;-64
2023/12/15 03:02:01;;;;;;;5.95;5.35;;;;;;;3.50;100.00;97335.25;5017375;28;20021;-64
2023/12/15 03:04:26;;;;;;;5.35;4.95;;;;;;;3.43;100.00;97324.25;5025803;28;20038;-64
2023/12/15 03:06:54;;;;;;;5.60;5.10;;;;;;;3.47;100.00;97339.75;5016191;28;20033;-64
2023/12/15 03:09:19;;;;;;;5.78;5.18;;;;;;;3.44;100.00;97336.34;5016666;28;20030;-64
2023/12/15 03:11:44;;;;;;;5.22;4.82;;;;;;;3.38;100.00;97333.97;5016556;28;20466;-64
2023/12/15 03:14:10;;;;;;;5.80;5.13;;;;;;;3.35;100.00;97331.47;5026462;28;20037;-64
2023/12/15 03:16:36;;;;;;;6.22;5.28;;;;;;;3.38;100.00;97340.94;5015427;28;20056;-64
2023/12/15 03:19:01;;;;;;;5.05;4.53;;;;;;;3.37;100.00;97341.84;5017610;28;20390;-64
2023/12/15 03:21:26;;;;;;;5.32;4.93;;;;;;;3.32;100.00;97336.81;5020859;28;20021;-64
2023/12/15 03:23:52;;;;;;;4.53;4.20;;;;;;;3.31;100.00;97345.50;5022120;28;20053;-64
2023/12/15 03:26:17;;;;;;;5.10;4.70;;;;;;;3.27;100.00;97346.53;5026180;28;20022;-64
2023/12/15 03:28:42;;;;;;;4.78;4.47;;;;;;;3.21;100.00;97352.81;5033098;28;20033;-64
2023/12/15 03:31:08;;;;;;;4.13;3.88;;;;;;;3.14;100.00;97349.56;5032657;28;20052;-64
2023/12/15 03:33:35;;;;;;;5.13;4.68;;;;;;;3.12;100.00;97350.56;5031733;28;20441;-64
2023/12/15 03:36:01;;;;;;;5.40;5.00;;;;;;;3.08;100.00;97355.00;5024054;28;20105;-64
2023/12/15 03:38:27;;;;;;;5.07;4.72;;;;;;;3.05;100.00;97360.31;5023408;28;20026;-64
2023/12/15 03:40:52;;;;;;;5.35;4.95;;;;;;;3.06;100.00;97355.94;5022219;28;20032;-64
2023/12/15 03:43:17;;;;;;;5.07;4.68;;;;;;;3.10;100.00;97363.59;5028390;28;20025;-64
2023/12/15 03:45:43;;;;;;;5.22;4.82;;;;;;;3.11;100.00;97357.50;5018331;28;20028;-64
2023/12/15 03:48:08;;;;;;;4.88;4.57;;;;;;;3.07;100.00;97358.50;5026491;28;20032;-64
2023/12/15 03:50:34;;;;;;;5.55;5.13;;;;;;;3.01;100.00;97356.97;5034581;28;20026;-64
2023/12/15 03:52:59;;;;;;;4.60;4.30;;;;;;;2.96;100.00;97350.22;5026115;28;20462;-64
2023/12/15 03:55:25;;;;;;;4.35;4.05;;;;;;;2.94;100.00;97360.69;5034084;28;20080;-64
2023/12/15 03:57:50;;;;;;;4.97;4.57;;;;;;;2.93;100.00;97361.59;5029578;28;20101;-64
2023/12/15 04:00:17;;;;;;;4.88;4.50;;;;;;;2.91;100.00;97358.22;5015803;28;20090;-64
2023/12/15 04:02:43;;;;;;;4.28;4.03;;;;;;;2.96;100.00;97355.44;5036074;28;20013;-64
2023/12/15 04:05:09;;;;;;;4.20;3.80;;;;;;;3.01;100.00;97353.53;5038069;28;20030;-64
2023/12/15 04:07:34;;;;;;;4.70;3.78;;;;;;;3.04;100.00;97356.03;5025368;28;20017;-64
2023/12/15 04:10:00;;;;;;;4.38;3.00;;;;;;;3.11;100.00;97359.25;5026406;28;20632;-64
2023/12/15 04:12:25;;;;;;;3.40;3.10;;;;;;;3.18;100.00;97360.72;5033257;28;20482;-64
2023/12/15 04:14:50;;;;;;;3.65;3.45;;;;;;;3.27;100.00;97365.59;5038449;28;20026;-64
2023/12/15 04:17:16;;;;;;;3.50;3.20;;;;;;;3.17;100.00;97371.19;5018278;28;20084;-64
2023/12/15 04:19:41;;;;;;;3.58;3.38;;;;;;;3.07;100.00;97374.13;5022842;28;20108;-64
2023/12/15 04:22:06;;;;;;;3.50;3.03;;;;;;;3.16;100.00;97378.16;5037875;28;20040;-64
2023/12/15 04:24:32;;;;;;;3.55;3.25;;;;;;;3.17;100.00;97374.66;5038049;28;20025;-64
2023/12/15 04:26:57;;;;;;;3.05;2.78;;;;;;;3.13;100.00;97380.88;5029443;28;20559;-64
2023/12/15 04:29:23;;;;;;;3.50;3.20;;;;;;;3.04;100.00;97383.78;5029015;28;20052;-64
2023/12/15 04:31:48;;;;;;;3.22;2.92;;;;;;;2.95;100.00;97380.63;5021992;28;20568;-64
2023/12/15 04:34:14;;;;;;;3.08;2.88;;;;;;;2.86;100.00;97384.38;5019943;28;20032;-64
2023/12/15 04:36:39;;;;;;;3.28;3.08;;;;;;;2.82;100.00;97385.38;5020989;28;20022;-64
2023/12/15 04:39:05;;;;;;;3.42;3.13;;;;;;;2.74;100.00;97382.19;5028607;28;20502;-64
2023/12/15 04:41:31;;;;;;;4.00;3.75;;;;;;;2.68;100.00;97380.66;5020280;28;20120;-64
2023/12/15 04:43:56;;;;;;;4.40;3.80;;;;;;;2.64;100.00;97386.84;5034367;28;20612;-64
2023/12/15 04:46:29;;;;;;;3.83;3.53;;;;;;;2.61;100.00;97381.75;5027587;28;20050;-64
2023/12/15 04:48:57;;;;;;;3.53;3.22;;;;;;;2.54;100.00;97380.25;5023136;28;20071;-64
2023/12/15 04:51:23;;;;;;;3.90;3.50;;;;;;;2.49;100.00;97382.16;5036704;28;20116;-64
2023/12/15 04:53:49;;;;;;;4.35;4.05;;;;;;;2.44;100.00;97390.09;5029258;28;20533;-64
2023/12/15 04:56:15;;;;;;;4.47;4.18;;;;;;;2.36;100.00;97392.94;5031652;28;20022;-64
2023/12/15 04:58:41;;;;;;;3.60;3.30;;;;;;;2.34;100.00;97386.13;5024918;28;20045;-64
2023/12/15 05:01:12;;;;;;;3.40;3.20;;;;;;;2.31;100.00;97394.00;5032932;28;20021;-64
2023/12/15 05:03:38;;;;;;;4.95;2.90;;;;;;;2.24;100.00;97396.78;5024139;28;20033;-64
2023/12/15 05:06:04;;;;;;;3.50;3.20;;;;;;;2.23;100.00;97402.88;5017851;28;20022;-64
2023/12/15 05:08:29;;;;;;;3.72;3.42;;;;;;;2.20;100.00;97394.31;5024745;28;20208;-64
2023/12/15 05:10:55;;;;;;;3.00;2.80;;;;;;;2.19;100.00;97390.03;5026848;28;20024;-64
2023/12/15 05:13:20;;;;;;;5.55;5.13;;;;;;;2.13;100.00;97393.69;5017883;28;20032;-64
2023/12/15 05:15:45;;;;;;;3.20;3.00;;;;;;;2.03;100.00;97382.75;5017244;28;20133;-64
2023/12/15 05:18:11;;;;;;;3.88;3.58;;;;;;;2.00;100.00;97381.06;5044283;28;20029;-64
2023/12/15 05:20:38;;;;;;;3.60;3.40;;;;;;;1.99;100.00;97379.38;5025997;28;20049;-64
2023/12/15 05:23:03;;;;;;;3.47;3.15;;;;;;;1.98;100.00;97380.28;5028324;28;20076;-64
2023/12/15 05:25:29;;;;;;;4.20;3.92;;;;;;;1.97;100.00;97380.31;5030067;28;20022;-64
2023/12/15 05:27:55;;;;;;;4.55;4.25;;;;;;;1.96;100.00;97376.88;5036740;28;20497;-64
2023/12/15 05:30:20;;;;;;;4.22;3.92;;;;;;;1.96;100.00;97378.59;5031147;28;20032;-64
2023/12/15 05:32:45;;;;;;;4.22;3.92;;;;;;;1.88;100.00;97384.06;5021281;28;20105;-64
2023/12/15 05:35:11;;;;;;;5.47;5.07;;;;;;;1.86;100.00;97378.03;5020927;28;20064;-64
2023/12/15 05:37:36;;;;;;;11.48;10.27;;;;;;;1.88;100.00;97384.06;5020960;28;20026;-64
2023/12/15 05:40:02;;;;;;;6.50;5.97;;;;;;;1.78;100.00;97378.28;5019211;28;20061;-64
2023/12/15 05:42:27;;;;;;;6.85;6.25;;;;;;;1.74;100.00;97384.44;5023880;28;20029;-64
2023/12/15 05:44:53;;;;;;;6.55;6.05;;;;;;;1.67;100.00;97386.41;5018734;28;20468;-64
2023/12/15 05:47:18;;;;;;;4.85;4.55;;;;;;;1.59;100.00;97382.31;5016303;28;20020;-64
2023/12/15 05:49:43;;;;;;;4.22;3.92;;;;;;;1.52;100.00;97389.44;5027679;28;20018;-64
2023/12/15 05:52:09;;;;;;;4.18;3.88;;;;;;;1.53;100.00;97396.31;5017411;28;20073;-64
2023/12/15 05:54:38;;;;;;;5.03;3.80;;;;;;;1.46;100.00;97395.66;5032976;28;20097;-64
2023/12/15 05:57:04;;;;;;;4.65;4.25;;;;;;;1.38;100.00;97401.06;5023892;28;20045;-64
2023/12/15 05:59:29;;;;;;;9.95;9.05;;;;;;;1.34;100.00;97401.19;5004433;28;20032;-64
2023/12/15 06:01:54;;;;;;;10.85;8.32;;;;;;;1.28;100.00;97400.47;5032593;28;20084;-64
2023/12/15 06:04:20;;;;;;;9.55;8.55;;;;;;;1.23;100.00;97414.47;5034715;28;20037;-64
2023/12/15 06:06:45;;;;;;;10.50;9.00;;;;;;;1.24;100.00;97418.75;5023269;28;20068;-64
2023/12/15 06:09:10;;;;;;;11.50;8.93;;;;;;;1.22;100.00;97418.78;5034254;28;20379;-64
2023/12/15 06:11:42;;;;;;;10.18;9.05;;;;;;;1.20;100.00;97432.69;5022017;28;20459;-64
2023/12/15 06:14:08;;;;;;;10.05;9.07;;;;;;;1.16;100.00;97431.94;5017171;28;20022;-64
2023/12/15 06:16:34;;;;;;;9.55;8.65;;;;;;;1.13;100.00;97434.63;5022259;28;20124;-64
2023/12/15 06:19:00;;;;;;;9.30;8.40;;;;;;;1.09;100.00;97428.66;5021197;28;20057;-64
2023/12/15 06:21:27;;;;;;;9.40;8.48;;;;;;;1.08;100.00;97437.34;5033043;28;20079;-64
2023/12/15 06:23:53;;;;;;;9.43;8.73;;;;;;;1.01;100.00;97435.81;5026195;28;20494;-64
2023/12/15 06:26:23;;;;;;;8.10;7.40;;;;;;;1.00;100.00;97439.28;5021698;28;20025;-64
2023/12/15 06:28:49;;;;;;;9.52;7.53;;;;;;;1.00;100.00;97437.53;5029068;28;20391;-64
2023/12/15 06:31:15;;;;;;;8.60;7.80;;;;;;;1.00;100.00;97440.13;5024736;28;20033;-64
2023/12/15 06:33:41;;;;;;;7.45;6.85;;;;;;;0.98;100.00;97433.25;5022232;28;20530;-64
2023/12/15 06:36:08;;;;;;;8.45;7.75;;;;;;;1.02;100.00;97445.28;5025129;28;20028;-64
2023/12/15 06:38:35;;;;;;;7.95;7.25;;;;;;;1.05;100.00;97446.94;5024802;28;20044;-64
2023/12/15 06:41:01;;;;;;;7.55;6.95;;;;;;;1.08;100.00;97432.16;5025994;28;20067;-64
2023/12/15 06:43:27;;;;;;;7.80;7.00;;;;;;;1.16;100.00;97438.84;5029356;28;20062;-64
2023/12/15 06:45:53;;;;;;;7.15;6.55;;;;;;;1.20;100.00;97437.88;5030603;28;20392;-64
2023/12/15 06:48:18;;;;;;;7.45;6.75;;;;;;;1.23;100.00;97433.47;5034224;28;20036;-64
2023/12/15 06:50:43;;;;;;;6.95;6.32;;;;;;;1.30;100.00;97441.94;5021550;28;20030;-64
2023/12/15 06:53:09;;;;;;;8.70;6.75;;;;;;;1.34;100.00;97448.75;5033631;28;20072;-64
2023/12/15 06:55:35;;;;;;;8.20;7.47;;;;;;;1.39;100.00;97439.09;5021886;28;20477;-64
2023/12/15 06:58:01;;;;;;;9.00;7.15;;;;;;;1.46;100.00;97436.34;5041487;28;20040;-64
2023/12/15 07:00:26;;;;;;;6.95;6.25;;;;;;;1.50;100.00;97440.56;5020102;28;20029;-63
2023/12/15 07:02:51;;;;;;;7.05;6.45;;;;;;;1.52;100.00;97449.97;5032132;28;20140;-64
2023/12/15 07:05:17;;;;;;;6.95;6.35;;;;;;;1.46;100.00;97442.38;5022361;28;20391;-65
2023/12/15 07:07:42;;;;;;;7.43;6.78;;;;;;;1.48;100.00;97440.59;5023623;28;20061;-64
2023/12/15 07:10:08;;;;;;;7.30;6.70;;;;;;;1.46;100.00;97438.94;5019297;28;20034;-64
2023/12/15 07:12:33;;;;;;;7.28;6.68;;;;;;;1.45;100.00;97445.03;5024889;28;20025;-64
2023/12/15 07:14:58;;;;;;;6.68;5.93;;;;;;;1.43;100.00;97442.47;5029620;28;20029;-64
2023/12/15 07:17:24;;;;;;;8.70;5.72;;;;;;;1.41;100.00;97454.63;5025459;28;20109;-64
2023/12/15 07:19:49;;;;;;;6.03;5.53;;;;;;;1.37;100.00;97453.84;5021886;28;20040;-63
2023/12/15 07:22:14;;;;;;;7.18;6.38;;;;;;;1.38;100.00;97470.28;5025797;28;20032;-64
2023/12/15 07:24:41;;;;;;;17.00;10.63;;;;;;;1.40;100.00;97471.09;5031907;28;20103;-64
2023/12/15 07:27:07;;;;;;;24.63;17.60;;;;;;;1.41;100.00;97475.41;5018369;28;20041;-64
2023/12/15 07:29:32;;;;;;;20.25;14.93;;;;;;;1.43;100.00;97477.03;5024527;28;20025;-64
2023/12/15 07:31:58;;;;;;;23.20;15.65;;;;;;;1.50;100.00;97485.53;5020144;28;20143;-64
2023/12/15 07:34:23;;;;;;;29.67;19.55;;;;;;;1.51;100.00;97488.97;5023165;28;20091;-64
2023/12/15 07:36:48;;;;;;;34.28;23.27;;;;;;;1.52;100.00;97488.91;5030761;28;20029;-63
2023/12/15 07:39:20;;;;;;;34.80;24.13;;;;;;;1.51;100.00;97483.78;5020617;28;20194;-64
2023/12/15 07:41:46;;;;;;;30.30;19.13;;;;;;;1.49;100.00;97488.19;5024095;28;20037;-64
2023/12/15 07:44:13;;;;;;;22.27;15.05;;;;;;;1.50;100.00;97485.53;5028578;28;20030;-64
2023/12/15 07:46:38;;;;;;;25.45;18.50;;;;;;;1.51;100.00;97491.56;5025511;28;20546;-64
2023/12/15 07:49:04;;;;;;;17.95;14.10;;;;;;;1.57;100.00;97488.81;5028675;28;20080;-63
2023/12/15 07:51:29;;;;;;;13.75;10.90;;;;;;;1.64;100.00;97499.88;5026785;28;20400;-62
2023/12/15 07:53:55;;;;;;;9.35;7.78;;;;;;;1.70;100.00;97507.50;5019737;28;20061;-63
2023/12/15 07:56:25;;;;;;;12.70;8.75;;;;;;;1.76;100.00;97506.47;5028699;28;20048;-63
2023/12/15 07:58:51;;;;;;;14.68;11.48;;;;;;;1.80;100.00;97508.09;5024146;28;20050;-63
2023/12/15 08:01:22;;;;;;;15.48;11.10;;;;;;;1.79;100.00;97515.03;5024061;28;20453;-63
2023/12/15 08:03:47;;;;;;;14.98;12.75;;;;;;;1.79;100.00;97509.84;5031699;28;20553;-62
2023/12/15 08:06:14;;;;;;;13.95;12.52;;;;;;;1.83;100.00;97514.06;5030315;28;20052;-63
2023/12/15 08:08:44;;;;;;;14.27;12.48;;;;;;;1.84;100.00;97513.16;5026359;28;20026;-63
2023/12/15 08:11:10;;;;;;;16.50;14.88;;;;;;;1.89;100.00;97517.38;5027031;28;20668;-62
2023/12/15 08:13:40;;;;;;;20.73;18.58;;;;;;;1.91;100.00;97524.25;5024393;28;20040;-63
2023/12/15 08:16:07;;;;;;;20.10;16.60;;;;;;;2.02;100.00;97528.25;5025159;28;20064;-63
2023/12/15 08:18:33;;;;;;;23.40;18.88;;;;;;;1.95;100.00;97528.44;5016666;28;20663;-63
2023/12/15 08:20:59;;;;;;;42.28;33.15;;;;;;;1.93;100.00;97537.16;5023591;28;20076;-63
2023/12/15 08:23:25;;;;;;;37.00;29.38;;;;;;;2.11;100.00;97547.03;5029778;28;20033;-63
2023/12/15 08:25:51;;;;;;;33.28;25.80;;;;;;;2.03;100.00;97548.16;5023301;28;20031;-63
2023/12/15 08:28:18;;;;;;;24.42;20.35;;;;;;;2.11;100.00;97546.22;5029188;28;20030;-63
2023/12/15 08:30:44;;;;;;;23.02;19.73;;;;;;;2.21;100.00;97559.75;5017097;28;20042;-63
2023/12/15 08:33:09;;;;;;;37.42;30.10;;;;;;;2.23;100.00;97547.59;5026541;28;20403;-63
2023/12/15 08:35:35;;;;;;;35.78;29.92;;;;;;;2.25;100.00;97556.19;5026973;28;20029;-63
2023/12/15 08:38:00;;;;;;;33.40;27.45;;;;;;;2.27;100.00;97554.41;5027176;28;20033;-63
2023/12/15 08:40:25;;;;;;;30.10;25.77;;;;;;;2.29;100.00;97548.25;5028661;28;20049;-62
2023/12/15 08:42:51;;;;;;;25.98;23.10;;;;;;;2.30;100.00;97546.50;5025232;28;20018;-63
2023/12/15 08:45:17;;;;;;;28.10;22.73;;;;;;;2.42;100.00;97560.91;5026343;28;20025;-63
2023/12/15 08:47:43;;;;;;;23.73;21.15;;;;;;;2.51;100.00;97563.22;5025897;28;20032;-63
2023/12/15 08:50:09;;;;;;;22.85;20.52;;;;;;;2.59;100.00;97555.19;5029311;28;20029;-62
2023/12/15 08:52:34;;;;;;;23.88;20.73;;;;;;;2.66;100.00;97548.06;5022923;28;20028;-62
2023/12/15 08:55:00;;;;;;;22.23;19.80;;;;;;;2.68;100.00;97547.13;5029704;28;20036;-63
2023/12/15 08:57:25;;;;;;;17.88;15.98;;;;;;;2.63;100.00;97550.75;5029598;28;20037;-63
2023/12/15 08:59:51;;;;;;;15.02;13.43;;;;;;;2.55;100.00;97558.78;5024406;28;20493;-62
2023/12/15 09:02:16;;;;;;;14.75;13.25;;;;;;;2.48;100.00;97555.50;5021722;28;20029;-63
2023/12/15 09:04:42;;;;;;;22.65;18.48;;;;;;;2.45;100.00;97562.56;5025211;28;20041;-63
2023/12/15 09:07:07;;;;;;;12.35;11.30;;;;;;;2.40;100.00;97562.69;5029859;28;20038;-63
2023/12/15 09:09:34;;;;;;;12.60;10.40;;;;;;;2.38;100.00;97564.50;5031913;28;20022;-63
2023/12/15 09:12:00;;;;;;;9.05;8.18;;;;;;;2.35;100.00;97568.03;5027073;28;20137;-63
2023/12/15 09:14:26;;;;;;;9.57;8.65;;;;;;;2.35;100.00;97572.38;5008476;28;20026;-63
2023/12/15 09:16:51;;;;;;;12.27;9.75;;;;;;;2.38;100.00;97564.50;5013352;28;20033;-63
2023/12/15 09:19:17;;;;;;;12.13;9.70;;;;;;;2.37;100.00;97568.00;5017926;28;20041;-63
2023/12/15 09:21:42;;;;;;;12.30;11.10;;;;;;;2.35;100.00;97562.00;5042931;28;20036;-63
2023/12/15 09:24:08;;;;;;;14.88;11.65;;;;;;;2.32;100.00;97577.66;5023020;28;20129;-62
2023/12/15 09:26:34;;;;;;;13.43;10.93;;;;;;;2.27;100.00;97580.41;5025042;28;20029;-62
2023/12/15 09:28:59;;;;;;;13.30;11.55;;;;;;;2.31;100.00;97582.00;5030479;28;20049;-63
2023/12/15 09:31:24;;;;;;;14.77;13.30;;;;;;;2.35;100.00;97578.41;5021448;28;20029;-63
2023/12/15 09:33:50;;;;;;;13.05;11.63;;;;;;;2.64;100.00;97583.66;5026570;28;20057;-63
2023/12/15 09:36:15;;;;;;;12.93;11.63;;;;;;;2.96;100.00;97584.41;5019703;28;20049;-63
2023/12/15 09:38:41;;;;;;;15.93;13.50;;;;;;;3.36;100.00;97583.13;5029794;28;20029;-63
2023/12/15 09:41:07;;;;;;;15.77;14.20;;;;;;;3.71;100.00;97593.25;5038816;28;20573;-63
2023/12/15 09:43:32;;;;;;;13.70;11.82;;;;;;;4.04;100.00;97599.94;5021206;28;20685;-62
2023/12/15 09:45:58;;;;;;;12.73;9.88;;;;;;;4.34;100.00;97615.41;5024396;28;20036;-63
2023/12/15 09:48:27;;;;;;;10.07;9.07;;;;;;;4.46;100.00;97628.00;5020187;28;20059;-63
2023/12/15 09:50:55;;;;;;;7.32;6.63;;;;;;;4.67;100.00;97636.81;5033523;28;20021;-63
2023/12/15 09:53:22;;;;;;;7.15;6.40;;;;;;;4.85;100.00;97642.22;5023369;28;20057;-63
2023/12/15 09:55:50;;;;;;;7.28;6.57;;;;;;;4.90;100.00;97649.88;5026609;28;20021;-63
2023/12/15 09:58:17;;;;;;;7.90;7.20;;;;;;;4.95;100.00;97655.75;5022067;28;20037;-63
2023/12/15 10:00:42;;;;;;;8.30;7.55;;;;;;;5.03;100.00;97658.94;5022732;28;20033;-63
2023/12/15 10:03:07;;;;;;;7.93;6.82;;;;;;;5.10;100.00;97670.84;5027251;28;20033;-63
2023/12/15 10:05:34;;;;;;;7.07;6.50;;;;;;;5.37;100.00;97670.66;5027800;28;20032;-64
2023/12/15 10:08:00;;;;;;;7.65;7.05;;;;;;;5.37;100.00;97691.56;5023042;28;20029;-64
2023/12/15 10:10:26;;;;;;;7.80;7.10;;;;;;;5.40;100.00;97682.78;5020392;28;20057;-64
2023/12/15 10:12:56;;;;;;;9.13;8.25;;;;;;;5.52;100.00;97686.66;5030853;28;20053;-63
2023/12/15 10:15:22;;;;;;;8.90;8.15;;;;;;;5.52;100.00;97673.59;5028547;28;20060;-65
2023/12/15 10:17:49;;;;;;;15.38;10.75;;;;;;;5.54;100.00;97684.84;5026270;28;20486;-64
2023/12/15 10:20:26;;;;;;;11.20;10.10;;;;;;;5.57;100.00;97684.69;5098994;27;20113;-65
2023/12/15 10:23:25;;;;;;;7.78;6.95;;;;;;;5.71;100.00;97695.47;5090542;28;20036;-64
2023/12/15 10:25:52;;;;;;;7.45;6.82;;;;;;;5.83;100.00;97698.47;5085645;28;20104;-65
2023/12/15 10:28:17;;;;;;;5.93;5.38;;;;;;;6.16;100.00;97692.78;5091068;28;20024;-64
2023/12/15 10:30:43;;;;;;;7.38;6.78;;;;;;;6.32;100.00;97692.97;5089100;28;20039;-64
2023/12/15 10:33:08;;;;;;;6.13;5.45;;;;;;;6.54;100.00;97699.88;5077746;28;20116;-65
2023/12/15 10:35:36;;;;;;;8.35;6.13;;;;;;;6.61;100.00;97690.00;5090220;28;20028;-65
2023/12/15 10:38:02;;;;;;;6.75;6.15;;;;;;;6.72;100.00;97692.97;5089593;28;20024;-64
2023/12/15 10:40:27;;;;;;;5.40;4.97;;;;;;;6.93;100.00;97677.22;5087217;28;20042;-64
2023/12/15 10:42:53;;;;;;;7.30;5.60;;;;;;;6.84;100.00;97671.50;5088070;28;20715;-65
2023/12/15 10:45:20;;;;;;;5.60;4.53;;;;;;;6.98;100.00;97667.41;5088847;28;20043;-64
2023/12/15 10:47:46;;;;;;;5.55;5.05;;;;;;;6.95;100.00;97644.81;5087418;28;20099;-64
2023/12/15 10:50:13;;;;;;;4.90;4.60;;;;;;;6.94;100.00;97630.03;5087093;28;20027;-64
2023/12/15 10:52:39;;;;;;;4.53;4.22;;;;;;;7.09;100.00;97636.31;5088518;28;20023;-64
2023/12/15 10:55:07;;;;;;;6.30;5.00;;;;;;;7.15;100.00;97619.47;5087449;28;20020;-65
2023/12/15 10:57:32;;;;;;;4.70;4.40;;;;;;;7.14;100.00;97618.59;5089218;28;20016;-65
2023/12/15 11:00:00;;;;;;;5.30;4.90;;;;;;;7.24;100.00;97608.53;5089498;28;20020;-65
2023/12/15 11:02:28;;;;;;;6.70;4.93;;;;;;;7.09;100.00;97604.88;5084369;28;20465;-65
2023/12/15 11:04:58;;;;;;;6.07;5.55;;;;;;;7.09;100.00;97612.72;5088767;28;20027;-65
2023/12/15 11:07:24;;;;;;;5.75;5.35;;;;;;;7.09;100.00;97620.59;5087832;28;20024;-64
2023/12/15 11:09:50;;;;;;;4.15;3.85;;;;;;;7.05;100.00;97616.44;5088158;28;20015;-64
2023/12/15 11:12:27;;;;;;;5.35;4.85;;;;;;;7.10;100.00;97611.81;5119071;28;20036;-64
2023/12/15 11:14:56;;;;;;;4.95;4.55;;;;;;;7.14;100.00;97610.75;5086528;28;20391;-64
2023/12/15 11:17:21;;;;;;;5.15;4.65;;;;;;;7.03;100.00;97602.56;5083771;28;20028;-64
2023/12/15 11:19:53;;;;;;;6.45;5.95;;;;;;;7.04;100.00;97606.88;5103739;28;20131;-64
2023/12/15 11:22:20;;;;;;;6.63;6.13;;;;;;;7.32;100.00;97597.69;5110301;28;20407;-64